Time;durP1;ratioP1;P1;durP2;ratioP2;P2;SDS_P1;SDS_P2;PMS_P1;PMS_P2;Temp;Humidity;BMP_temperature;BMP_pressure;BME280_temperature;BME280_humidity;BME280_pressure;Samples;Min_cycle;Max_cycle;Signal;HPM_P1;HPM_P2
2022/04/21 00:00:33;;;;;;;7.90;4.93;;;;;;;;;;5037817;28;20053;-69
2022/04/21 00:02:59;;;;;;;9.88;5.28;;;;;;;;;;5037697;28;20055;-69
2022/04/21 00:05:25;;;;;;;6.03;4.60;;;;;;;;;;5043473;28;20021;-69
2022/04/21 00:07:50;;;;;;;7.63;4.90;;;;;;;;;;5035925;28;20035;-69
2022/04/21 00:10:17;;;;;;;6.85;5.03;;;;;;;;;;5038961;28;20068;-69
2022/04/21 00:12:43;;;;;;;6.90;5.25;;;;;;;;;;5048728;28;20029;-69
2022/04/21 00:15:10;;;;;;;6.95;5.38;;;;;;;;;;5042069;28;20111;-69
2022/04/21 00:17:36;;;;;;;6.10;5.18;;;;;;;;;;5040585;28;20112;-69
2022/04/21 00:20:02;;;;;;;12.23;5.65;;;;;;;;;;5040973;28;20494;-69
2022/04/21 00:25:12;;;;;;;9.23;5.05;;;;;;;;;;5035236;28;20037;-69
2022/04/21 00:27:43;;;;;;;6.18;5.43;;;;;;;;;;5039499;28;20033;-69
2022/04/21 00:30:10;;;;;;;9.65;5.35;;;;;;;;;;5041135;28;20044;-69
2022/04/21 00:32:40;;;;;;;8.20;5.43;;;;;;;;;;5038529;28;20033;-69
2022/04/21 00:35:08;;;;;;;6.80;4.93;;;;;;;;;;5037212;28;20033;-69
2022/04/21 00:37:43;;;;;;;10.15;5.75;;;;;;;;;;5040492;28;20037;-69
2022/04/21 00:40:09;;;;;;;5.75;5.05;;;;;;;;;;5042568;28;20386;-70
2022/04/21 00:42:35;;;;;;;8.70;5.13;;;;;;;;;;5043278;28;20038;-69
2022/04/21 00:45:01;;;;;;;11.30;5.00;;;;;;;;;;5039383;28;20029;-69
2022/04/21 00:47:30;;;;;;;6.68;5.47;;;;;;;;;;5036223;28;20030;-69
2022/04/21 00:49:56;;;;;;;9.70;5.32;;;;;;;;;;5033611;28;20025;-69
2022/04/21 00:52:22;;;;;;;6.28;5.13;;;;;;;;;;5036660;28;20029;-69
2022/04/21 00:54:48;;;;;;;6.95;4.93;;;;;;;;;;5039600;28;20045;-70
2022/04/21 00:57:15;;;;;;;6.78;5.10;;;;;;;;;;5036497;28;20051;-69
2022/04/21 00:59:42;;;;;;;6.82;5.07;;;;;;;;;;5040162;28;20052;-69
2022/04/21 01:04:53;;;;;;;5.30;4.80;;;;;;;;;;5034637;28;20041;-69
2022/04/21 01:07:20;;;;;;;6.85;5.50;;;;;;;;;;5037394;28;20026;-69
2022/04/21 01:09:45;;;;;;;8.35;5.10;;;;;;;;;;5041883;28;20025;-69
2022/04/21 01:12:13;;;;;;;7.93;5.28;;;;;;;;;;5039726;28;20029;-69
2022/04/21 01:14:39;;;;;;;7.28;5.32;;;;;;;;;;5040961;28;20358;-69
2022/04/21 01:17:06;;;;;;;7.45;5.03;;;;;;;;;;5037401;28;20052;-69
2022/04/21 01:19:33;;;;;;;6.30;5.00;;;;;;;;;;5035962;28;20488;-69
2022/04/21 01:21:58;;;;;;;8.05;5.50;;;;;;;;;;5034633;28;20120;-69
2022/04/21 01:24:24;;;;;;;5.10;4.65;;;;;;;;;;5036552;28;20100;-69
2022/04/21 01:26:50;;;;;;;6.50;5.30;;;;;;;;;;5039292;28;20469;-69
2022/04/21 01:29:17;;;;;;;6.38;5.47;;;;;;;;;;5039599;28;20029;-69
2022/04/21 01:31:43;;;;;;;6.93;5.22;;;;;;;;;;5034144;28;20028;-69
2022/04/21 01:34:09;;;;;;;5.25;4.72;;;;;;;;;;5037145;28;20033;-70
2022/04/21 01:36:35;;;;;;;6.75;5.40;;;;;;;;;;5042351;28;20029;-69
2022/04/21 01:41:45;;;;;;;7.00;5.15;;;;;;;;;;5037752;28;20432;-70
2022/04/21 01:44:10;;;;;;;6.40;5.45;;;;;;;;;;5034681;28;20037;-70
2022/04/21 01:46:36;;;;;;;12.82;6.25;;;;;;;;;;5040600;28;20064;-69
2022/04/21 01:49:02;;;;;;;7.85;6.05;;;;;;;;;;5038554;28;20037;-70
2022/04/21 01:51:28;;;;;;;6.68;5.55;;;;;;;;;;5038266;28;20899;-69
2022/04/21 01:53:53;;;;;;;5.85;5.28;;;;;;;;;;5032467;28;20556;-69
2022/04/21 01:56:19;;;;;;;7.65;5.72;;;;;;;;;;5036911;28;20466;-68
2022/04/21 01:58:45;;;;;;;8.55;6.20;;;;;;;;;;5035639;28;20086;-69
2022/04/21 02:01:10;;;;;;;7.38;5.95;;;;;;;;;;5040722;28;20033;-70
2022/04/21 02:03:36;;;;;;;6.65;5.38;;;;;;;;;;5035788;28;20033;-70
2022/04/21 02:06:02;;;;;;;9.23;6.30;;;;;;;;;;5041135;28;20102;-57
2022/04/21 02:08:28;;;;;;;6.75;5.60;;;;;;;;;;5036825;28;20458;-70
2022/04/21 02:10:54;;;;;;;7.68;6.05;;;;;;;;;;5033311;28;20363;-70
2022/04/21 02:13:19;;;;;;;6.80;5.55;;;;;;;;;;5034917;28;20032;-69
2022/04/21 02:15:45;;;;;;;7.63;6.05;;;;;;;;;;5036498;28;20475;-69
2022/04/21 02:18:11;;;;;;;8.68;5.93;;;;;;;;;;5035779;28;20505;-70
2022/04/21 02:20:37;;;;;;;6.85;5.75;;;;;;;;;;5035547;28;20048;-69
2022/04/21 02:23:03;;;;;;;8.43;5.97;;;;;;;;;;5036815;28;20025;-70
2022/04/21 02:25:29;;;;;;;9.63;6.10;;;;;;;;;;5031067;28;20033;-69
2022/04/21 02:27:54;;;;;;;7.80;6.15;;;;;;;;;;5036847;28;20072;-69
2022/04/21 02:30:20;;;;;;;6.68;6.05;;;;;;;;;;5034580;28;20112;-70
2022/04/21 02:32:46;;;;;;;6.53;5.93;;;;;;;;;;5034326;28;20056;-69
2022/04/21 02:35:13;;;;;;;10.38;5.90;;;;;;;;;;5037826;28;20025;-69
2022/04/21 02:37:43;;;;;;;7.00;6.28;;;;;;;;;;5037402;28;20057;-70
2022/04/21 02:40:10;;;;;;;6.45;5.80;;;;;;;;;;5042511;28;20040;-69
2022/04/21 02:42:38;;;;;;;9.45;6.10;;;;;;;;;;5038951;28;20033;-70
2022/04/21 02:45:08;;;;;;;7.95;6.30;;;;;;;;;;5042856;28;20025;-69
2022/04/21 02:47:38;;;;;;;6.97;6.32;;;;;;;;;;5035827;28;20034;-70
2022/04/21 02:50:05;;;;;;;6.50;5.90;;;;;;;;;;5038993;28;20033;-70
2022/04/21 02:52:37;;;;;;;8.07;5.97;;;;;;;;;;5039156;28;20040;-69
2022/04/21 02:57:48;;;;;;;9.43;7.20;;;;;;;;;;5038361;28;20486;-69
2022/04/21 03:00:13;;;;;;;9.98;7.43;;;;;;;;;;5043298;28;20040;-68
2022/04/21 03:02:39;;;;;;;10.25;7.20;;;;;;;;;;5041757;28;20020;-69
2022/04/21 03:05:06;;;;;;;7.50;6.80;;;;;;;;;;5038305;28;20037;-69
2022/04/21 03:07:31;;;;;;;6.95;6.25;;;;;;;;;;5038761;28;20024;-70
2022/04/21 03:09:57;;;;;;;8.05;6.68;;;;;;;;;;5041414;28;21674;-69
2022/04/21 03:12:26;;;;;;;8.57;6.45;;;;;;;;;;5041371;28;20025;-69
2022/04/21 03:14:53;;;;;;;7.32;6.60;;;;;;;;;;5038628;28;20436;-69
2022/04/21 03:17:19;;;;;;;7.00;6.40;;;;;;;;;;5037884;28;20025;-69
2022/04/21 03:19:45;;;;;;;7.53;6.75;;;;;;;;;;5040191;28;20030;-70
2022/04/21 03:25:04;;;;;;;6.88;6.22;;;;;;;;;;5036144;28;20041;-69
2022/04/21 03:27:29;;;;;;;11.98;6.95;;;;;;;;;;5035858;28;20074;-69
2022/04/21 03:29:56;;;;;;;9.90;7.00;;;;;;;;;;5039891;28;20033;-69
2022/04/21 03:32:22;;;;;;;7.88;7.15;;;;;;;;;;5035917;28;20032;-69
2022/04/21 03:34:47;;;;;;;8.40;6.25;;;;;;;;;;5038835;28;20028;-69
2022/04/21 03:37:15;;;;;;;6.90;6.22;;;;;;;;;;5046980;28;20038;-69
2022/04/21 03:39:42;;;;;;;7.43;6.70;;;;;;;;;;5043827;28;20021;-69
2022/04/21 03:42:19;;;;;;;9.98;6.50;;;;;;;;;;5044447;28;20100;-69
2022/04/21 03:44:45;;;;;;;7.57;6.47;;;;;;;;;;5041082;28;20037;-69
2022/04/21 03:47:11;;;;;;;6.68;6.18;;;;;;;;;;5037786;28;20385;-70
2022/04/21 03:49:37;;;;;;;8.85;6.57;;;;;;;;;;5034768;28;20025;-69
2022/04/21 03:52:02;;;;;;;7.75;6.20;;;;;;;;;;5047510;28;20119;-69
2022/04/21 03:54:28;;;;;;;7.10;6.40;;;;;;;;;;5043903;28;20046;-69
2022/04/21 03:56:54;;;;;;;7.30;6.30;;;;;;;;;;5041096;28;20039;-69
2022/04/21 03:59:22;;;;;;;8.77;6.15;;;;;;;;;;5036345;28;20493;-69
2022/04/21 04:01:48;;;;;;;8.63;6.82;;;;;;;;;;5040199;28;20422;-69
2022/04/21 04:04:13;;;;;;;8.85;6.38;;;;;;;;;;5037898;28;20048;-69
2022/04/21 04:12:09;;;;;;;5.82;5.32;;;;;;;;;;5040048;28;20029;-69
2022/04/21 04:14:36;;;;;;;6.50;5.82;;;;;;;;;;5036977;28;20037;-70
2022/04/21 04:17:02;;;;;;;6.32;5.78;;;;;;;;;;5036011;28;20044;-69
2022/04/21 04:19:28;;;;;;;6.60;5.80;;;;;;;;;;5039156;28;20040;-70
2022/04/21 04:21:54;;;;;;;6.78;5.93;;;;;;;;;;5041368;28;20033;-69
2022/04/21 04:24:20;;;;;;;6.25;5.63;;;;;;;;;;5040614;28;20116;-70
2022/04/21 04:26:45;;;;;;;6.40;5.80;;;;;;;;;;5042062;28;20024;-69
2022/04/21 04:29:11;;;;;;;7.40;5.72;;;;;;;;;;5036014;28;20106;-70
2022/04/21 04:31:40;;;;;;;6.45;5.68;;;;;;;;;;5036296;28;20029;-70
2022/04/21 04:34:08;;;;;;;6.97;6.07;;;;;;;;;;5040624;28;20126;-69
2022/04/21 04:36:34;;;;;;;7.18;6.15;;;;;;;;;;5036995;28;20091;-69
2022/04/21 04:39:00;;;;;;;9.55;6.53;;;;;;;;;;5043179;28;20029;-69
2022/04/21 04:44:10;;;;;;;7.25;6.55;;;;;;;;;;5035346;28;20043;-70
2022/04/21 04:46:35;;;;;;;7.85;6.65;;;;;;;;;;5039734;28;20029;-69
2022/04/21 04:49:04;;;;;;;6.20;5.70;;;;;;;;;;5042404;28;20040;-69
2022/04/21 04:51:31;;;;;;;7.05;5.55;;;;;;;;;;5042870;28;20035;-70
2022/04/21 04:53:57;;;;;;;6.60;6.03;;;;;;;;;;5039821;28;20271;-70
2022/04/21 04:56:23;;;;;;;6.28;5.68;;;;;;;;;;5039495;28;20025;-69
2022/04/21 04:58:50;;;;;;;7.18;6.18;;;;;;;;;;5039006;28;20027;-70
2022/04/21 05:01:26;;;;;;;8.68;6.05;;;;;;;;;;5033625;28;20029;-69
2022/04/21 05:04:00;;;;;;;10.02;5.40;;;;;;;;;;5035913;28;20021;-70
2022/04/21 05:06:26;;;;;;;8.15;5.68;;;;;;;;;;5043100;28;20033;-70
2022/04/21 05:08:51;;;;;;;6.50;5.90;;;;;;;;;;5041113;28;20033;-70
2022/04/21 05:11:17;;;;;;;6.78;6.25;;;;;;;;;;5036639;28;20033;-69
2022/04/21 05:13:44;;;;;;;5.65;4.97;;;;;;;;;;5045019;28;20101;-70
2022/04/21 05:16:09;;;;;;;6.72;5.25;;;;;;;;;;5035806;28;20032;-70
2022/04/21 05:18:35;;;;;;;7.57;5.07;;;;;;;;;;5041491;28;20025;-70
2022/04/21 05:21:01;;;;;;;7.30;5.18;;;;;;;;;;5037187;28;20038;-70
2022/04/21 05:23:32;;;;;;;5.78;4.93;;;;;;;;;;5038459;28;20064;-70
2022/04/21 05:25:58;;;;;;;5.78;5.20;;;;;;;;;;5039408;28;20482;-70
2022/04/21 05:28:24;;;;;;;6.07;4.85;;;;;;;;;;5038768;28;20039;-70
2022/04/21 05:30:58;;;;;;;6.07;4.78;;;;;;;;;;5043105;28;20112;-70
2022/04/21 05:33:26;;;;;;;5.85;5.32;;;;;;;;;;5036486;28;20033;-70
2022/04/21 05:35:54;;;;;;;5.68;5.18;;;;;;;;;;5039509;28;20021;-70
2022/04/21 05:38:21;;;;;;;5.85;5.35;;;;;;;;;;5035308;28;20117;-69
2022/04/21 05:40:48;;;;;;;5.72;5.22;;;;;;;;;;5045290;28;20044;-69
2022/04/21 05:43:18;;;;;;;5.45;4.95;;;;;;;;;;5044529;28;20478;-70
2022/04/21 05:45:43;;;;;;;5.63;5.13;;;;;;;;;;5039647;28;20037;-69
2022/04/21 05:48:10;;;;;;;6.50;5.50;;;;;;;;;;5040420;28;20025;-69
2022/04/21 05:50:36;;;;;;;8.85;5.88;;;;;;;;;;5064991;28;20027;-69
2022/04/21 05:53:03;;;;;;;7.20;5.63;;;;;;;;;;5037296;28;20024;-69
2022/04/21 05:55:29;;;;;;;6.63;6.03;;;;;;;;;;5036677;28;20516;-69
2022/04/21 05:57:55;;;;;;;8.18;5.80;;;;;;;;;;5041067;28;20045;-69
2022/04/21 06:00:21;;;;;;;6.22;5.72;;;;;;;;;;5037417;28;20036;-70
2022/04/21 06:02:47;;;;;;;6.97;6.28;;;;;;;;;;5040236;28;20032;-70
2022/04/21 06:05:13;;;;;;;6.55;5.90;;;;;;;;;;5031945;28;20033;-69
2022/04/21 06:07:39;;;;;;;6.70;5.97;;;;;;;;;;5040152;28;20116;-69
2022/04/21 06:10:06;;;;;;;7.00;6.38;;;;;;;;;;5038110;28;20025;-68
2022/04/21 06:12:34;;;;;;;6.82;6.22;;;;;;;;;;5038696;28;20037;-68
2022/04/21 06:15:00;;;;;;;6.80;6.20;;;;;;;;;;5039171;28;20136;-68
2022/04/21 06:17:26;;;;;;;8.38;6.53;;;;;;;;;;5035689;28;20530;-68
2022/04/21 06:19:51;;;;;;;9.27;6.72;;;;;;;;;;5036793;28;20386;-69
2022/04/21 06:22:17;;;;;;;7.63;6.60;;;;;;;;;;5042711;28;20725;-69
2022/04/21 06:24:43;;;;;;;7.57;6.88;;;;;;;;;;5041152;28;20729;-69
2022/04/21 06:27:08;;;;;;;7.45;6.75;;;;;;;;;;5035794;28;20041;-68
2022/04/21 06:29:35;;;;;;;9.45;7.13;;;;;;;;;;5035040;28;20026;-69
2022/04/21 06:32:01;;;;;;;8.93;6.80;;;;;;;;;;5039925;28;20047;-69
2022/04/21 06:34:27;;;;;;;8.90;7.65;;;;;;;;;;5034748;28;20029;-69
2022/04/21 06:36:52;;;;;;;9.70;7.63;;;;;;;;;;5040294;28;20044;-69
2022/04/21 06:39:18;;;;;;;8.27;7.28;;;;;;;;;;5036734;28;20118;-69
2022/04/21 06:41:43;;;;;;;8.95;7.40;;;;;;;;;;5037764;28;20021;-69
2022/04/21 06:49:37;;;;;;;7.30;6.60;;;;;;;;;;5039836;28;20036;-70
2022/04/21 06:52:04;;;;;;;8.23;7.38;;;;;;;;;;5036377;28;20504;-68
2022/04/21 06:54:30;;;;;;;11.60;7.53;;;;;;;;;;5040314;28;20049;-69
2022/04/21 06:56:56;;;;;;;9.65;8.05;;;;;;;;;;5039765;28;20041;-69
2022/04/21 06:59:21;;;;;;;8.23;6.70;;;;;;;;;;5034480;28;20500;-69
2022/04/21 07:01:47;;;;;;;8.48;7.45;;;;;;;;;;5068343;28;20547;-69
2022/04/21 07:04:14;;;;;;;9.52;8.00;;;;;;;;;;5037391;28;20403;-69
2022/04/21 07:06:39;;;;;;;7.97;7.18;;;;;;;;;;5039432;28;20040;-69
2022/04/21 07:09:05;;;;;;;8.85;8.05;;;;;;;;;;5042084;28;20021;-69
2022/04/21 07:11:31;;;;;;;8.80;7.90;;;;;;;;;;5035512;28;20060;-69
2022/04/21 07:13:57;;;;;;;9.13;7.97;;;;;;;;;;5036260;28;20072;-68
2022/04/21 07:16:23;;;;;;;8.63;7.72;;;;;;;;;;5038316;28;20026;-69
2022/04/21 07:18:49;;;;;;;8.82;8.00;;;;;;;;;;5041268;28;20037;-68
2022/04/21 07:21:15;;;;;;;9.40;7.38;;;;;;;;;;5038621;28;20548;-69
2022/04/21 07:23:42;;;;;;;13.70;8.63;;;;;;;;;;5034554;28;20040;-69
2022/04/21 07:26:08;;;;;;;11.73;8.25;;;;;;;;;;5043748;28;20025;-68
2022/04/21 07:28:34;;;;;;;10.52;7.97;;;;;;;;;;5041056;28;20055;-68
2022/04/21 07:31:00;;;;;;;10.18;8.30;;;;;;;;;;5037768;28;20029;-69
2022/04/21 07:33:26;;;;;;;9.70;7.97;;;;;;;;;;5037206;28;20029;-69
2022/04/21 07:35:52;;;;;;;9.45;8.40;;;;;;;;;;5038764;28;20025;-69
2022/04/21 07:38:18;;;;;;;8.70;7.90;;;;;;;;;;5037166;28;20448;-68
2022/04/21 07:40:43;;;;;;;9.55;8.32;;;;;;;;;;5040007;28;20029;-69
2022/04/21 07:43:09;;;;;;;10.63;8.23;;;;;;;;;;5042391;28;20021;-69
2022/04/21 07:45:38;;;;;;;8.63;7.82;;;;;;;;;;5036892;28;20030;-68
2022/04/21 07:48:04;;;;;;;9.50;8.50;;;;;;;;;;5037426;28;20065;-69
2022/04/21 07:50:30;;;;;;;9.23;7.95;;;;;;;;;;5038569;28;20443;-69
2022/04/21 07:53:14;;;;;;;9.18;8.27;;;;;;;;;;5042857;28;20025;-68
2022/04/21 07:55:45;;;;;;;9.57;8.52;;;;;;;;;;5037344;28;20029;-69
2022/04/21 07:58:11;;;;;;;10.40;9.15;;;;;;;;;;5033349;28;20044;-69
2022/04/21 08:00:38;;;;;;;10.27;8.88;;;;;;;;;;5038305;28;20033;-69
2022/04/21 08:03:05;;;;;;;9.65;8.75;;;;;;;;;;5041484;28;20057;-69
2022/04/21 08:05:32;;;;;;;10.60;9.55;;;;;;;;;;5039438;28;20534;-69
2022/04/21 08:07:58;;;;;;;10.25;9.25;;;;;;;;;;5040678;28;20398;-69
2022/04/21 08:10:27;;;;;;;9.40;8.48;;;;;;;;;;5036376;28;20025;-69
2022/04/21 08:12:54;;;;;;;9.57;8.57;;;;;;;;;;5040630;28;20243;-69
2022/04/21 08:15:28;;;;;;;7.10;6.50;;;;;;;;;;5035885;28;20037;-68
2022/04/21 08:17:56;;;;;;;7.45;6.85;;;;;;;;;;5043864;28;20036;-68
2022/04/21 08:20:22;;;;;;;8.77;7.97;;;;;;;;;;5037858;28;20500;-68
2022/04/21 08:22:48;;;;;;;10.00;7.25;;;;;;;;;;5038892;28;20029;-68
2022/04/21 08:33:27;;;;;;;6.32;5.47;;;;;;;;;;5042685;28;20029;-68
2022/04/21 08:35:58;;;;;;;5.82;5.32;;;;;;;;;;5039541;28;20033;-70
2022/04/21 08:38:28;;;;;;;10.15;6.38;;;;;;;;;;5037652;28;20024;-71
2022/04/21 08:40:55;;;;;;;7.03;6.32;;;;;;;;;;5036249;28;20037;-70
2022/04/21 08:43:29;;;;;;;6.80;5.90;;;;;;;;;;5039583;28;20028;-69
2022/04/21 08:45:56;;;;;;;7.07;6.07;;;;;;;;;;5041394;28;20033;-70
2022/04/21 08:48:23;;;;;;;8.85;6.65;;;;;;;;;;5043048;28;20409;-69
2022/04/21 08:50:49;;;;;;;14.77;12.77;;;;;;;;;;5040533;28;20030;-70
2022/04/21 08:53:19;;;;;;;14.27;11.40;;;;;;;;;;5035287;28;20049;-71
2022/04/21 08:55:47;;;;;;;12.60;9.07;;;;;;;;;;5038381;28;20082;-69
2022/04/21 08:58:13;;;;;;;17.00;11.90;;;;;;;;;;5037768;28;20710;-69
2022/04/21 09:00:40;;;;;;;9.38;8.38;;;;;;;;;;5034138;28;20132;-70
2022/04/21 09:03:08;;;;;;;12.45;6.20;;;;;;;;;;5041979;28;20029;-69
2022/04/21 09:05:33;;;;;;;4.90;4.43;;;;;;;;;;5034791;28;20043;-69
2022/04/21 09:08:00;;;;;;;5.28;4.68;;;;;;;;;;5037799;28;20116;-69
2022/04/21 09:10:32;;;;;;;5.18;4.53;;;;;;;;;;5036403;28;20075;-69
2022/04/21 09:13:02;;;;;;;4.60;4.30;;;;;;;;;;5036188;28;20048;-69
2022/04/21 09:15:30;;;;;;;4.57;4.18;;;;;;;;;;5036627;28;20021;-70
2022/04/21 09:17:58;;;;;;;4.75;4.35;;;;;;;;;;5038435;28;20091;-69
2022/04/21 09:20:36;;;;;;;7.43;4.63;;;;;;;;;;5043505;28;20021;-69
2022/04/21 09:23:05;;;;;;;12.82;7.22;;;;;;;;;;5036554;28;20034;-69
2022/04/21 09:25:42;;;;;;;6.88;5.22;;;;;;;;;;5036422;28;20029;-70
2022/04/21 09:28:21;;;;;;;9.18;5.13;;;;;;;;;;5043030;28;20036;-68
2022/04/21 09:30:47;;;;;;;9.70;5.00;;;;;;;;;;5036359;28;20024;-69
2022/04/21 09:33:34;;;;;;;8.65;5.35;;;;;;;;;;5036656;28;20382;-68
2022/04/21 09:36:09;;;;;;;7.30;5.22;;;;;;;;;;5043957;28;20033;-69
2022/04/21 09:38:35;;;;;;;5.97;5.00;;;;;;;;;;5041957;28;20078;-68
2022/04/21 09:41:11;;;;;;;4.65;4.30;;;;;;;;;;5032466;28;20034;-69
2022/04/21 09:43:38;;;;;;;4.47;4.03;;;;;;;;;;5034660;28;20485;-69
2022/04/21 09:46:15;;;;;;;5.00;4.55;;;;;;;;;;5040430;28;20029;-68
2022/04/21 09:48:41;;;;;;;4.80;4.47;;;;;;;;;;5037955;28;20478;-69
2022/04/21 09:51:13;;;;;;;6.90;5.10;;;;;;;;;;5037630;28;20041;-68
2022/04/21 09:54:00;;;;;;;4.60;4.07;;;;;;;;;;5038237;28;20405;-68
2022/04/21 09:56:31;;;;;;;7.47;4.13;;;;;;;;;;5036622;28;20281;-68
2022/04/21 09:59:01;;;;;;;4.50;4.20;;;;;;;;;;5036255;28;20040;-67
2022/04/21 10:01:28;;;;;;;4.53;4.13;;;;;;;;;;5042222;28;20034;-67
2022/04/21 10:03:55;;;;;;;4.78;4.32;;;;;;;;;;5037210;28;20038;-68
2022/04/21 10:06:22;;;;;;;7.32;3.50;;;;;;;;;;5039236;28;20025;-68
2022/04/21 10:08:51;;;;;;;4.43;3.88;;;;;;;;;;5039145;28;20036;-67
2022/04/21 10:11:23;;;;;;;4.50;4.10;;;;;;;;;;5034588;28;20032;-68
2022/04/21 10:13:54;;;;;;;5.10;3.63;;;;;;;;;;5038040;28;20044;-68
2022/04/21 10:16:21;;;;;;;4.22;3.70;;;;;;;;;;5043030;28;20116;-68
2022/04/21 10:18:52;;;;;;;3.75;3.47;;;;;;;;;;5036528;28;20033;-68
2022/04/21 10:21:42;;;;;;;5.00;3.55;;;;;;;;;;5034543;28;20059;-69
2022/04/21 10:24:09;;;;;;;4.78;4.03;;;;;;;;;;5029981;28;20045;-68
2022/04/21 10:26:36;;;;;;;3.58;3.28;;;;;;;;;;5037375;28;20044;-68
2022/04/21 10:29:31;;;;;;;7.50;3.30;;;;;;;;;;5036702;28;20048;-68
2022/04/21 10:31:59;;;;;;;4.55;2.97;;;;;;;;;;5026949;28;20038;-67
2022/04/21 10:34:43;;;;;;;4.07;3.03;;;;;;;;;;5035146;28;20764;-67
2022/04/21 10:37:13;;;;;;;8.75;3.42;;;;;;;;;;5039788;28;20036;-67
2022/04/21 10:39:59;;;;;;;4.93;3.58;;;;;;;;;;5041096;28;20513;-66
2022/04/21 10:42:25;;;;;;;2.85;2.55;;;;;;;;;;5038511;28;20036;-67
2022/04/21 10:44:53;;;;;;;6.15;3.10;;;;;;;;;;5037223;28;20036;-66
2022/04/21 10:47:38;;;;;;;9.75;2.63;;;;;;;;;;5036871;28;20441;-66
2022/04/21 10:50:12;;;;;;;4.80;2.90;;;;;;;;;;5038796;28;20132;-67
2022/04/21 10:57:51;;;;;;;4.65;2.90;;;;;;;;;;5037291;28;20029;-66
2022/04/21 11:00:28;;;;;;;2.88;2.55;;;;;;;;;;5039474;28;20501;-66
2022/04/21 11:03:03;;;;;;;4.15;2.67;;;;;;;;;;5041635;28;20151;-66
2022/04/21 11:05:34;;;;;;;3.53;2.80;;;;;;;;;;5045320;28;20029;-66
2022/04/21 11:08:13;;;;;;;3.33;2.60;;;;;;;;;;5043904;28;20460;-66
2022/04/21 11:10:39;;;;;;;6.10;2.90;;;;;;;;;;5039949;28;20483;-65
2022/04/21 11:13:10;;;;;;;3.30;2.38;;;;;;;;;;5036424;28;20038;-66
2022/04/21 11:15:46;;;;;;;6.93;2.92;;;;;;;;;;5042903;28;20104;-65
2022/04/21 11:18:18;;;;;;;5.85;2.83;;;;;;;;;;5036159;28;20743;-65
2022/04/21 11:20:48;;;;;;;3.25;2.17;;;;;;;;;;5070073;28;20041;-65
2022/04/21 11:23:29;;;;;;;2.85;2.50;;;;;;;;;;5036844;28;20037;-66
2022/04/21 11:26:05;;;;;;;2.30;2.10;;;;;;;;;;5036212;28;20547;-65
2022/04/21 11:28:31;;;;;;;3.22;2.17;;;;;;;;;;5038082;28;20394;-66
2022/04/21 11:30:59;;;;;;;3.03;2.20;;;;;;;;;;5039640;28;20079;-65
2022/04/21 11:33:25;;;;;;;3.63;2.53;;;;;;;;;;5036486;28;20056;-65
2022/04/21 11:36:08;;;;;;;5.38;2.72;;;;;;;;;;5039563;28;20367;-65
2022/04/21 11:38:36;;;;;;;;;;;;;;;;;;5037929;28;20239;-66
2022/04/21 11:41:07;;;;;;;4.20;2.45;;;;;;;;;;5038467;28;19916;-65
2022/04/21 11:43:35;;;;;;;4.20;2.47;;;;;;;;;;5036576;28;20493;-65
2022/04/21 11:46:03;;;;;;;4.60;2.42;;;;;;;;;;5042695;28;20045;-66
2022/04/21 11:48:30;;;;;;;3.38;2.28;;;;;;;;;;5041198;28;20390;-65
2022/04/21 11:50:56;;;;;;;2.67;2.47;;;;;;;;;;5038716;28;20740;-65
2022/04/21 11:53:22;;;;;;;2.78;2.20;;;;;;;;;;5038008;28;20055;-66
2022/04/21 11:55:50;;;;;;;4.65;2.55;;;;;;;;;;5037896;28;20110;-65
2022/04/21 11:58:32;;;;;;;3.95;2.40;;;;;;;;;;5035946;28;20397;-65
2022/04/21 12:06:57;;;;;;;2.88;2.67;;;;;;;;;;5043366;28;20033;-65
2022/04/21 12:09:28;;;;;;;3.58;3.28;;;;;;;;;;5038238;28;20411;-66
2022/04/21 12:11:55;;;;;;;7.03;3.60;;;;;;;;;;5038980;28;20034;-66
2022/04/21 12:14:21;;;;;;;3.85;3.55;;;;;;;;;;5036155;28;20070;-66
2022/04/21 12:16:53;;;;;;;5.45;3.38;;;;;;;;;;5036751;28;20040;-66
2022/04/21 12:19:35;;;;;;;5.20;3.15;;;;;;;;;;5042497;28;20143;-66
2022/04/21 12:22:08;;;;;;;;;;;;;;;;;;5035163;28;20040;-66
2022/04/21 12:24:50;;;;;;;12.75;3.50;;;;;;;;;;5043471;28;19927;-66
2022/04/21 12:27:44;;;;;;;7.55;3.40;;;;;;;;;;5038073;28;20036;-66
2022/04/21 12:30:11;;;;;;;3.72;3.38;;;;;;;;;;5031834;28;20033;-66
2022/04/21 12:32:39;;;;;;;4.07;3.35;;;;;;;;;;5039884;28;20048;-65
2022/04/21 12:35:08;;;;;;;3.40;3.10;;;;;;;;;;5042263;28;20025;-66
2022/04/21 12:37:41;;;;;;;7.07;3.80;;;;;;;;;;5037862;28;20033;-66
2022/04/21 12:40:12;;;;;;;4.55;3.50;;;;;;;;;;5037228;28;20067;-66
2022/04/21 12:42:40;;;;;;;3.60;3.13;;;;;;;;;;5037729;28;20116;-66
2022/04/21 12:45:06;;;;;;;5.50;3.05;;;;;;;;;;5036420;28;20075;-66
2022/04/21 12:47:50;;;;;;;2.50;2.30;;;;;;;;;;5038183;28;20359;-65
2022/04/21 12:50:23;;;;;;;2.83;2.33;;;;;;;;;;5039719;28;20083;-66
2022/04/21 12:52:54;;;;;;;2.97;2.65;;;;;;;;;;5033513;28;20029;-65
2022/04/21 12:55:19;;;;;;;2.92;2.72;;;;;;;;;;5037205;28;20025;-65
2022/04/21 12:58:05;;;;;;;6.10;2.70;;;;;;;;;;5037287;28;20474;-66
2022/04/21 13:00:32;;;;;;;2.95;2.63;;;;;;;;;;5038019;28;20087;-66
2022/04/21 13:02:59;;;;;;;3.05;2.67;;;;;;;;;;5040778;28;20482;-65
2022/04/21 13:05:26;;;;;;;4.43;3.08;;;;;;;;;;5038037;28;20037;-66
2022/04/21 13:07:51;;;;;;;4.75;3.13;;;;;;;;;;5034829;28;20375;-65
2022/04/21 13:10:21;;;;;;;3.65;3.33;;;;;;;;;;5035465;28;20394;-66
2022/04/21 13:12:47;;;;;;;3.72;3.22;;;;;;;;;;5039754;28;20068;-66
2022/04/21 13:15:13;;;;;;;3.60;3.30;;;;;;;;;;5037592;28;20398;-66
2022/04/21 13:17:42;;;;;;;4.38;3.00;;;;;;;;;;5037502;28;20033;-66
2022/04/21 13:20:11;;;;;;;3.60;3.00;;;;;;;;;;5037408;28;20028;-65
2022/04/21 13:22:37;;;;;;;8.65;3.20;;;;;;;;;;5038171;28;20028;-66
2022/04/21 13:25:03;;;;;;;3.30;3.10;;;;;;;;;;5031872;28;20037;-65
2022/04/21 13:27:29;;;;;;;2.92;2.72;;;;;;;;;;5032281;28;20036;-65
2022/04/21 13:29:56;;;;;;;3.67;3.38;;;;;;;;;;5039014;28;20028;-66
2022/04/21 13:35:07;;;;;;;3.85;3.42;;;;;;;;;;5037707;28;20043;-65
2022/04/21 13:37:33;;;;;;;4.50;3.42;;;;;;;;;;5031483;28;20112;-65
2022/04/21 13:39:59;;;;;;;5.38;3.85;;;;;;;;;;5038153;28;20040;-65
2022/04/21 13:42:24;;;;;;;8.23;3.60;;;;;;;;;;5039620;28;20025;-66
2022/04/21 13:44:51;;;;;;;3.95;3.40;;;;;;;;;;5037778;28;20045;-66
2022/04/21 13:47:18;;;;;;;4.10;3.70;;;;;;;;;;5032646;28;20037;-65
2022/04/21 13:49:46;;;;;;;3.65;3.35;;;;;;;;;;5037153;28;20029;-65
2022/04/21 13:52:12;;;;;;;3.78;3.15;;;;;;;;;;5032315;28;20136;-65
2022/04/21 13:54:39;;;;;;;3.50;3.20;;;;;;;;;;5036118;28;20419;-66
2022/04/21 13:57:04;;;;;;;3.10;2.80;;;;;;;;;;5034290;28;20072;-66
2022/04/21 13:59:31;;;;;;;3.67;3.30;;;;;;;;;;5039326;28;20065;-66
2022/04/21 14:01:57;;;;;;;3.13;2.80;;;;;;;;;;5064962;28;20045;-65
2022/04/21 14:04:23;;;;;;;3.85;2.85;;;;;;;;;;5034422;28;20108;-66
2022/04/21 14:06:49;;;;;;;3.88;2.90;;;;;;;;;;5036841;28;20033;-66
2022/04/21 14:09:14;;;;;;;3.67;3.38;;;;;;;;;;5035193;28;20057;-66
2022/04/21 14:11:40;;;;;;;5.72;2.72;;;;;;;;;;5036721;28;20056;-66
2022/04/21 14:14:06;;;;;;;3.75;2.90;;;;;;;;;;5038414;28;20029;-67
2022/04/21 14:16:33;;;;;;;12.50;4.15;;;;;;;;;;5035520;28;21068;-69
2022/04/21 14:19:01;;;;;;;13.68;4.55;;;;;;;;;;5040956;28;20026;-69
2022/04/21 14:21:27;;;;;;;11.68;4.93;;;;;;;;;;5034683;28;20034;-69
2022/04/21 14:23:53;;;;;;;7.07;4.15;;;;;;;;;;5039333;28;20029;-69
2022/04/21 14:26:19;;;;;;;8.38;4.32;;;;;;;;;;5043235;28;20035;-70
2022/04/21 14:28:46;;;;;;;10.80;4.03;;;;;;;;;;5031997;28;20029;-70
2022/04/21 14:31:11;;;;;;;8.90;4.43;;;;;;;;;;5037628;28;20025;-69
2022/04/21 14:33:38;;;;;;;5.85;4.63;;;;;;;;;;5033604;28;20029;-68
2022/04/21 14:36:09;;;;;;;11.07;5.78;;;;;;;;;;5036481;28;20036;-69
2022/04/21 14:44:05;;;;;;;9.63;6.45;;;;;;;;;;5033185;28;20021;-68
2022/04/21 14:46:32;;;;;;;10.88;6.47;;;;;;;;;;5033734;28;20033;-68
2022/04/21 14:48:58;;;;;;;7.22;5.40;;;;;;;;;;5036118;28;20033;-68
2022/04/21 14:51:23;;;;;;;9.50;5.85;;;;;;;;;;5040732;28;20103;-67
2022/04/21 14:53:49;;;;;;;9.45;5.22;;;;;;;;;;5038774;28;20076;-67
2022/04/21 14:56:15;;;;;;;8.43;6.28;;;;;;;;;;5038705;28;20040;-66
2022/04/21 14:58:41;;;;;;;8.05;5.70;;;;;;;;;;5031150;28;20053;-67
2022/04/21 15:01:07;;;;;;;9.25;6.10;;;;;;;;;;5037897;28;20455;-67
2022/04/21 15:03:36;;;;;;;9.10;6.20;;;;;;;;;;5035056;28;20440;-67
2022/04/21 15:06:06;;;;;;;9.20;5.43;;;;;;;;;;5038263;28;20056;-67
2022/04/21 15:08:32;;;;;;;16.73;6.20;;;;;;;;;;5036325;28;20037;-68
2022/04/21 15:10:58;;;;;;;12.27;6.15;;;;;;;;;;5034230;28;20038;-68
2022/04/21 15:13:24;;;;;;;9.77;6.57;;;;;;;;;;5032456;28;20096;-67
2022/04/21 15:15:52;;;;;;;12.65;6.53;;;;;;;;;;5037071;28;20038;-67
2022/04/21 15:18:18;;;;;;;13.32;6.88;;;;;;;;;;5041987;28;20032;-67
2022/04/21 15:20:44;;;;;;;15.48;7.00;;;;;;;;;;5037312;28;20033;-67
2022/04/21 15:23:12;;;;;;;9.43;7.30;;;;;;;;;;5044791;28;20032;-68
2022/04/21 15:25:39;;;;;;;58.75;10.05;;;;;;;;;;5042809;28;20073;-67
2022/04/21 15:28:05;;;;;;;14.82;7.15;;;;;;;;;;5033302;28;20033;-67
2022/04/21 15:30:36;;;;;;;10.55;7.25;;;;;;;;;;5037694;28;20029;-67
2022/04/21 15:33:03;;;;;;;12.68;6.45;;;;;;;;;;5034588;28;20036;-67
2022/04/21 15:35:28;;;;;;;17.88;7.18;;;;;;;;;;5037940;28;20024;-67
2022/04/21 15:37:54;;;;;;;15.60;7.32;;;;;;;;;;5034162;28;20041;-67
2022/04/21 15:40:20;;;;;;;14.73;7.70;;;;;;;;;;5043749;28;20025;-67